Time;durP1;ratioP1;P1;durP2;ratioP2;P2;SDS_P1;SDS_P2;PMS_P1;PMS_P2;Temp;Humidity;BMP_temperature;BMP_pressure;BME280_temperature;BME280_humidity;BME280_pressure;Samples;Min_cycle;Max_cycle;Signal;HPM_P1;HPM_P2
2023/11/10 00:00:48;;;;;;;;;;;8.60;68.10;;;;;;5009823;28;87386;-56
2023/11/10 00:03:14;;;;;;;;;;;8.60;68.20;;;;;;5016348;28;87216;-55
2023/11/10 00:05:39;;;;;;;;;;;8.60;68.20;;;;;;5017108;28;87405;-53
2023/11/10 00:08:09;;;;;;;;;;;8.50;68.30;;;;;;5013964;28;87212;-50
2023/11/10 00:10:35;;;;;;;;;;;8.50;68.40;;;;;;5016374;28;87136;-55
2023/11/10 00:13:01;;;;;;;;;;;8.50;68.30;;;;;;5014789;28;86575;-51
2023/11/10 00:15:27;;;;;;;;;;;8.50;68.30;;;;;;5014624;28;88527;-55
2023/11/10 00:17:53;;;;;;;;;;;8.50;68.30;;;;;;5012963;28;87315;-57
2023/11/10 00:20:19;;;;;;;;;;;8.50;68.40;;;;;;5013483;28;89549;-54
2023/11/10 00:22:44;;;;;;;;;;;8.50;68.20;;;;;;5011674;28;87215;-50
2023/11/10 00:25:11;;;;;;;;;;;8.60;68.20;;;;;;5013842;28;87703;-52
2023/11/10 00:27:36;;;;;;;;;;;8.50;68.00;;;;;;5015406;28;89625;-60
2023/11/10 00:30:02;;;;;;;;;;;8.50;68.00;;;;;;5013926;28;86990;-54
2023/11/10 00:32:28;;;;;;;;;;;8.50;68.10;;;;;;5011862;28;87168;-51
2023/11/10 00:34:53;;;;;;;;;;;8.40;68.20;;;;;;5012227;28;87228;-52
2023/11/10 00:37:19;;;;;;;;;;;8.40;68.30;;;;;;5016409;28;87300;-51
2023/11/10 00:39:44;;;;;;;;;;;8.40;68.20;;;;;;5014250;28;88070;-52
2023/11/10 00:42:10;;;;;;;;;;;8.40;68.20;;;;;;5009706;28;87616;-55
2023/11/10 00:44:35;;;;;;;;;;;8.40;68.30;;;;;;5014449;28;88001;-58
2023/11/10 00:47:01;;;;;;;;;;;8.30;68.30;;;;;;5020426;28;87212;-51
2023/11/10 00:49:27;;;;;;;;;;;8.40;68.30;;;;;;5012053;28;87356;-52
2023/11/10 00:51:52;;;;;;;;;;;8.30;68.30;;;;;;5012135;28;89297;-57
2023/11/10 00:54:18;;;;;;;;;;;8.40;68.10;;;;;;5014074;28;87191;-54
2023/11/10 00:56:44;;;;;;;;;;;8.30;68.20;;;;;;5012588;28;87444;-57
2023/11/10 00:59:10;;;;;;;;;;;8.30;68.30;;;;;;5014374;28;88477;-53
2023/11/10 01:01:36;;;;;;;;;;;8.30;68.30;;;;;;5013587;28;86570;-52
2023/11/10 01:04:02;;;;;;;;;;;8.30;68.30;;;;;;5012965;28;87659;-56
2023/11/10 01:06:28;;;;;;;;;;;8.30;68.90;;;;;;5014641;28;88220;-47
2023/11/10 01:08:54;;;;;;;;;;;8.20;68.30;;;;;;5015129;28;88136;-51
2023/11/10 01:11:19;;;;;;;;;;;8.30;68.30;;;;;;5008494;28;87305;-55
2023/11/10 01:13:45;;;;;;;;;;;8.20;68.30;;;;;;5011308;28;87146;-53
2023/11/10 01:16:11;;;;;;;;;;;8.20;68.40;;;;;;5013993;28;88016;-51
2023/11/10 01:18:38;;;;;;;;;;;8.20;68.20;;;;;;5016027;28;88117;-54
2023/11/10 01:21:03;;;;;;;;;;;8.20;68.20;;;;;;5013728;28;87126;-54
2023/11/10 01:23:29;;;;;;;;;;;8.20;68.10;;;;;;5011410;28;87492;-54
2023/11/10 01:25:54;;;;;;;;;;;8.20;68.70;;;;;;5014476;28;88796;-54
2023/11/10 01:28:20;;;;;;;;;;;8.20;68.30;;;;;;5013128;28;87156;-51
2023/11/10 01:30:46;;;;;;;;;;;8.20;68.30;;;;;;5021096;28;87061;-53
2023/11/10 01:33:11;;;;;;;;;;;8.20;68.30;;;;;;5014427;28;89572;-50
2023/11/10 01:35:37;;;;;;;;;;;8.20;68.30;;;;;;5011922;28;88570;-55
2023/11/10 01:38:03;;;;;;;;;;;8.10;68.20;;;;;;5009055;28;89326;-59
2023/11/10 01:40:31;;;;;;;;;;;8.10;68.20;;;;;;5012244;28;87217;-51
2023/11/10 01:42:57;;;;;;;;;;;8.20;68.20;;;;;;5012885;28;87129;-51
2023/11/10 01:45:22;;;;;;;;;;;8.10;68.20;;;;;;5017031;28;88509;-54
2023/11/10 01:47:48;;;;;;;;;;;8.10;68.20;;;;;;5009353;28;87265;-59
2023/11/10 01:50:13;;;;;;;;;;;8.10;68.20;;;;;;5010034;28;87309;-57
2023/11/10 01:52:41;;;;;;;;;;;8.10;68.30;;;;;;5020381;28;89909;-53
2023/11/10 01:55:10;;;;;;;;;;;8.00;68.20;;;;;;5011413;28;89015;-56
2023/11/10 01:57:35;;;;;;;;;;;8.10;68.20;;;;;;5010609;28;90386;-50
2023/11/10 02:00:01;;;;;;;;;;;8.00;68.20;;;;;;5010665;28;87179;-53
2023/11/10 02:02:27;;;;;;;;;;;8.10;68.20;;;;;;5017297;28;87546;-54
2023/11/10 02:04:52;;;;;;;;;;;8.10;68.20;;;;;;5011584;28;87998;-52
2023/11/10 02:07:18;;;;;;;;;;;8.10;68.20;;;;;;5010969;28;87121;-51
2023/11/10 02:09:43;;;;;;;;;;;8.10;68.20;;;;;;5007204;28;87416;-49
2023/11/10 02:12:09;;;;;;;;;;;8.00;68.20;;;;;;5013845;28;87416;-52
2023/11/10 02:14:35;;;;;;;;;;;8.00;68.20;;;;;;5017943;28;86614;-56
2023/11/10 02:17:01;;;;;;;;;;;8.00;68.20;;;;;;5013033;28;89459;-55
2023/11/10 02:19:26;;;;;;;;;;;7.90;68.20;;;;;;5010704;28;87165;-52
2023/11/10 02:21:52;;;;;;;;;;;8.00;68.20;;;;;;5012471;28;88046;-54
2023/11/10 02:24:19;;;;;;;;;;;7.90;68.40;;;;;;5011502;28;88340;-53
2023/11/10 02:26:45;;;;;;;;;;;7.90;68.30;;;;;;5013977;28;87275;-54
2023/11/10 02:29:10;;;;;;;;;;;7.90;68.30;;;;;;5012621;28;87566;-52
2023/11/10 02:31:36;;;;;;;;;;;8.00;68.20;;;;;;5015581;28;89614;-54
2023/11/10 02:34:02;;;;;;;;;;;7.90;68.20;;;;;;5012623;28;87346;-51
2023/11/10 02:36:32;;;;;;;;;;;7.90;68.20;;;;;;5015151;28;87349;-56
2023/11/10 02:38:58;;;;;;;;;;;7.90;68.40;;;;;;5011740;28;86297;-50
2023/11/10 02:41:23;;;;;;;;;;;7.90;68.30;;;;;;5012846;28;87001;-50
2023/11/10 02:43:49;;;;;;;;;;;7.90;68.10;;;;;;5012893;28;89653;-54
2023/11/10 02:46:15;;;;;;;;;;;7.80;68.30;;;;;;5012689;28;88117;-52
2023/11/10 02:48:40;;;;;;;;;;;7.80;68.30;;;;;;5007636;28;88616;-51
2023/11/10 02:51:06;;;;;;;;;;;7.80;68.40;;;;;;5006339;28;88147;-54
2023/11/10 02:53:31;;;;;;;;;;;7.80;68.40;;;;;;5013292;28;87248;-52
2023/11/10 02:55:57;;;;;;;;;;;7.80;68.40;;;;;;5014651;28;87486;-54
2023/11/10 02:58:23;;;;;;;;;;;7.80;68.50;;;;;;5007383;28;87229;-50
2023/11/10 03:00:52;;;;;;;;;;;7.80;68.50;;;;;;5009370;28;88645;-50
2023/11/10 03:03:17;;;;;;;;;;;7.80;68.30;;;;;;5009407;28;87110;-48
2023/11/10 03:05:43;;;;;;;;;;;7.80;68.50;;;;;;5013610;28;87122;-54
2023/11/10 03:08:09;;;;;;;;;;;7.80;68.30;;;;;;5012055;28;87691;-55
2023/11/10 03:10:34;;;;;;;;;;;7.70;68.40;;;;;;5011913;28;89153;-54
2023/11/10 03:13:00;;;;;;;;;;;7.70;68.40;;;;;;5016867;28;87115;-56
2023/11/10 03:15:27;;;;;;;;;;;7.70;68.40;;;;;;5016313;28;88822;-58
2023/11/10 03:17:54;;;;;;;;;;;7.70;69.00;;;;;;5020641;28;87256;-52
2023/11/10 03:20:19;;;;;;;;;;;7.70;68.40;;;;;;5014851;28;88712;-51
2023/11/10 03:22:45;;;;;;;;;;;7.70;68.30;;;;;;5019629;28;88344;-53
2023/11/10 03:25:11;;;;;;;;;;;7.70;69.00;;;;;;5017228;28;87194;-55
2023/11/10 03:27:37;;;;;;;;;;;7.60;68.40;;;;;;5012372;28;88805;-54
2023/11/10 03:30:04;;;;;;;;;;;7.60;68.50;;;;;;5010633;28;88278;-52
2023/11/10 03:32:31;;;;;;;;;;;7.60;68.60;;;;;;5018878;28;87142;-53
2023/11/10 03:34:57;;;;;;;;;;;7.60;68.60;;;;;;5015772;28;88049;-52
2023/11/10 03:37:22;;;;;;;;;;;7.60;68.60;;;;;;5015465;28;89157;-56
2023/11/10 03:39:48;;;;;;;;;;;7.60;68.70;;;;;;5022946;28;88869;-50
2023/11/10 03:42:13;;;;;;;;;;;7.60;68.60;;;;;;5011466;28;88248;-56
2023/11/10 03:44:39;;;;;;;;;;;7.60;68.70;;;;;;5013810;28;87675;-53
2023/11/10 03:47:04;;;;;;;;;;;7.60;68.50;;;;;;5011880;28;87403;-53
2023/11/10 03:49:30;;;;;;;;;;;7.60;68.50;;;;;;5015056;28;89260;-52
2023/11/10 03:51:56;;;;;;;;;;;7.60;68.60;;;;;;5016494;28;86433;-55
2023/11/10 03:54:22;;;;;;;;;;;7.50;68.60;;;;;;5012925;28;87023;-54
2023/11/10 03:56:48;;;;;;;;;;;7.50;68.60;;;;;;5013637;28;89388;-54
2023/11/10 03:59:14;;;;;;;;;;;7.50;68.70;;;;;;5014373;28;88334;-54
2023/11/10 04:01:39;;;;;;;;;;;7.50;68.70;;;;;;5015909;28;88597;-55
2023/11/10 04:04:07;;;;;;;;;;;7.50;68.80;;;;;;5017747;28;88086;-55
2023/11/10 04:06:33;;;;;;;;;;;7.50;68.70;;;;;;5015050;28;87951;-51
2023/11/10 04:08:59;;;;;;;;;;;7.50;68.80;;;;;;5013053;28;87972;-52
2023/11/10 04:11:24;;;;;;;;;;;7.40;68.60;;;;;;5014656;28;87312;-58
2023/11/10 04:13:50;;;;;;;;;;;7.40;68.70;;;;;;5016958;28;87389;-51
2023/11/10 04:16:16;;;;;;;;;;;7.40;68.70;;;;;;5016451;28;87320;-58
2023/11/10 04:18:42;;;;;;;;;;;7.40;68.70;;;;;;5012893;28;87117;-54
2023/11/10 04:21:07;;;;;;;;;;;7.40;69.30;;;;;;5018669;28;87294;-51
2023/11/10 04:23:33;;;;;;;;;;;7.40;68.70;;;;;;5016036;28;89186;-55
2023/11/10 04:25:59;;;;;;;;;;;7.40;68.80;;;;;;5012543;28;88184;-56
2023/11/10 04:28:24;;;;;;;;;;;7.40;68.90;;;;;;5019399;28;87949;-56
2023/11/10 04:30:50;;;;;;;;;;;7.40;68.70;;;;;;5009080;28;87154;-55
2023/11/10 04:33:15;;;;;;;;;;;7.40;68.70;;;;;;5018233;28;87321;-55
2023/11/10 04:35:41;;;;;;;;;;;7.40;68.70;;;;;;5012733;28;88349;-51
2023/11/10 04:38:09;;;;;;;;;;;7.40;68.70;;;;;;5016505;28;87112;-52
2023/11/10 04:40:34;;;;;;;;;;;7.40;68.70;;;;;;5020259;28;88642;-57
2023/11/10 04:43:00;;;;;;;;;;;7.30;68.80;;;;;;5013145;28;87683;-58
2023/11/10 04:45:26;;;;;;;;;;;7.30;68.80;;;;;;5018330;28;87017;-51
2023/11/10 04:47:54;;;;;;;;;;;7.30;68.80;;;;;;5012857;28;89725;-57
2023/11/10 04:50:20;;;;;;;;;;;7.30;68.80;;;;;;5013857;28;87456;-50
2023/11/10 04:52:47;;;;;;;;;;;7.30;68.80;;;;;;5009614;28;87471;-56
2023/11/10 04:55:13;;;;;;;;;;;7.30;68.80;;;;;;5011766;28;89746;-51
2023/11/10 04:57:39;;;;;;;;;;;7.30;68.80;;;;;;5014069;28;87227;-55
2023/11/10 05:00:06;;;;;;;;;;;7.30;68.80;;;;;;5010998;28;87344;-55
2023/11/10 05:02:32;;;;;;;;;;;7.20;68.90;;;;;;5010816;28;89830;-49
2023/11/10 05:05:00;;;;;;;;;;;7.20;68.80;;;;;;5018717;28;86419;-58
2023/11/10 05:07:26;;;;;;;;;;;7.20;68.90;;;;;;5012697;28;87978;-49
2023/11/10 05:09:52;;;;;;;;;;;7.20;68.80;;;;;;5011498;28;87102;-56
2023/11/10 05:12:18;;;;;;;;;;;7.20;68.80;;;;;;5009944;28;88288;-54
2023/11/10 05:14:44;;;;;;;;;;;7.20;68.90;;;;;;5011756;28;88957;-56
2023/11/10 05:17:10;;;;;;;;;;;7.20;68.90;;;;;;5011803;28;87245;-53
2023/11/10 05:19:36;;;;;;;;;;;7.20;68.90;;;;;;5011205;28;88485;-56
2023/11/10 05:22:01;;;;;;;;;;;7.20;69.60;;;;;;5015765;28;89999;-54
2023/11/10 05:24:27;;;;;;;;;;;7.20;69.50;;;;;;5014117;28;87223;-52
2023/11/10 05:26:53;;;;;;;;;;;7.10;68.90;;;;;;5012680;28;90490;-48
2023/11/10 05:29:18;;;;;;;;;;;7.20;69.00;;;;;;5011754;28;86619;-53
2023/11/10 05:31:45;;;;;;;;;;;7.10;68.90;;;;;;5009769;28;87545;-50
2023/11/10 05:34:11;;;;;;;;;;;7.10;68.90;;;;;;5013074;28;88723;-55
2023/11/10 05:36:37;;;;;;;;;;;7.10;69.00;;;;;;5014255;28;89752;-52
2023/11/10 05:39:04;;;;;;;;;;;7.10;68.90;;;;;;5012691;28;88386;-58
2023/11/10 05:41:32;;;;;;;;;;;7.10;69.00;;;;;;5019941;28;89369;-51
2023/11/10 05:43:58;;;;;;;;;;;7.10;68.90;;;;;;5009751;28;87855;-53
2023/11/10 05:46:24;;;;;;;;;;;7.10;68.90;;;;;;5007526;28;87410;-56
2023/11/10 05:48:49;;;;;;;;;;;7.10;69.00;;;;;;5020235;28;87934;-55
2023/11/10 05:51:15;;;;;;;;;;;7.00;68.80;;;;;;5013735;28;89052;-53
2023/11/10 05:53:41;;;;;;;;;;;7.10;69.00;;;;;;5012538;28;87313;-50
2023/11/10 05:56:07;;;;;;;;;;;7.00;69.00;;;;;;5010896;28;87472;-53
2023/11/10 05:58:33;;;;;;;;;;;7.00;69.00;;;;;;5007973;28;87707;-52
2023/11/10 06:00:59;;;;;;;;;;;7.00;69.10;;;;;;5009679;28;90492;-48
2023/11/10 06:03:27;;;;;;;;;;;7.00;69.20;;;;;;5010270;28;87270;-59
2023/11/10 06:05:55;;;;;;;;;;;7.00;69.10;;;;;;5008462;28;87777;-51
2023/11/10 06:08:21;;;;;;;;;;;7.00;69.00;;;;;;5014289;28;88336;-55
2023/11/10 06:10:52;;;;;;;;;;;7.00;69.00;;;;;;5010002;28;88040;-51
2023/11/10 06:13:21;;;;;;;;;;;7.00;69.10;;;;;;5014686;28;89480;-46
2023/11/10 06:15:47;;;;;;;;;;;7.00;69.10;;;;;;5012739;28;87134;-54
2023/11/10 06:18:12;;;;;;;;;;;7.00;69.20;;;;;;5013534;28;88108;-56
2023/11/10 06:20:38;;;;;;;;;;;7.00;69.10;;;;;;5009991;28;87406;-59
2023/11/10 06:23:03;;;;;;;;;;;7.00;69.10;;;;;;5010994;28;88086;-54
2023/11/10 06:25:29;;;;;;;;;;;7.00;69.10;;;;;;5008990;28;88369;-52
2023/11/10 06:27:55;;;;;;;;;;;7.00;69.10;;;;;;5012623;28;88229;-54
2023/11/10 06:30:21;;;;;;;;;;;7.00;69.10;;;;;;5010269;28;87159;-56
2023/11/10 06:32:46;;;;;;;;;;;6.90;69.10;;;;;;5015152;28;88534;-55
2023/11/10 06:35:12;;;;;;;;;;;6.90;69.20;;;;;;5014868;28;87228;-52
2023/11/10 06:37:38;;;;;;;;;;;7.00;69.20;;;;;;5012718;28;87481;-54
2023/11/10 06:40:03;;;;;;;;;;;7.00;69.10;;;;;;5008047;28;87248;-56
2023/11/10 06:42:33;;;;;;;;;;;6.90;69.10;;;;;;5011522;28;86293;-52
2023/11/10 06:45:00;;;;;;;;;;;6.90;69.10;;;;;;5012829;28;88189;-53
2023/11/10 06:47:25;;;;;;;;;;;7.00;69.20;;;;;;5011693;28;89470;-53
2023/11/10 06:49:51;;;;;;;;;;;6.90;69.20;;;;;;5012728;28;88101;-52
2023/11/10 06:52:17;;;;;;;;;;;6.90;69.20;;;;;;5013041;28;89387;-54
2023/11/10 06:54:43;;;;;;;;;;;7.00;69.20;;;;;;5013823;28;87185;-51
2023/11/10 06:57:10;;;;;;;;;;;7.00;69.10;;;;;;5009090;28;88855;-50
2023/11/10 06:59:36;;;;;;;;;;;6.90;69.10;;;;;;5013309;28;87979;-53
2023/11/10 07:02:02;;;;;;;;;;;6.90;69.30;;;;;;5009952;28;88131;-56
2023/11/10 07:04:29;;;;;;;;;;;6.90;69.30;;;;;;5015309;28;87902;-56
2023/11/10 07:06:55;;;;;;;;;;;6.90;69.30;;;;;;5009050;28;87505;-50
2023/11/10 07:09:21;;;;;;;;;;;6.90;69.20;;;;;;5005341;28;87176;-55
2023/11/10 07:11:48;;;;;;;;;;;6.90;69.30;;;;;;5006521;28;88476;-50
2023/11/10 07:14:13;;;;;;;;;;;6.90;69.20;;;;;;5016133;28;90237;-53
2023/11/10 07:16:39;;;;;;;;;;;6.90;69.20;;;;;;5007359;28;88349;-55
2023/11/10 07:19:05;;;;;;;;;;;6.90;69.30;;;;;;5008665;28;87827;-53
2023/11/10 07:21:31;;;;;;;;;;;6.80;69.40;;;;;;5011877;28;87170;-54
2023/11/10 07:23:56;;;;;;;;;;;6.80;69.40;;;;;;5015847;28;87404;-51
2023/11/10 07:26:22;;;;;;;;;;;6.80;69.40;;;;;;5010267;28;88086;-52
2023/11/10 07:28:47;;;;;;;;;;;6.80;69.40;;;;;;5011033;28;87566;-56
2023/11/10 07:31:13;;;;;;;;;;;6.90;69.40;;;;;;5009088;28;87359;-53
2023/11/10 07:33:38;;;;;;;;;;;6.80;69.40;;;;;;5012061;28;87265;-52
2023/11/10 07:36:04;;;;;;;;;;;6.90;69.40;;;;;;5008809;28;87263;-50
2023/11/10 07:38:30;;;;;;;;;;;6.90;69.20;;;;;;5008954;28;88166;-53
2023/11/10 07:40:55;;;;;;;;;;;6.90;69.20;;;;;;5008485;28;87429;-54
2023/11/10 07:43:21;;;;;;;;;;;6.90;69.40;;;;;;5009534;28;87374;-55
2023/11/10 07:45:47;;;;;;;;;;;6.80;69.30;;;;;;5013218;28;88176;-55
2023/11/10 07:48:15;;;;;;;;;;;6.90;69.60;;;;;;5007987;28;87173;-48
2023/11/10 07:50:41;;;;;;;;;;;6.90;69.60;;;;;;5012211;28;87825;-56
2023/11/10 07:53:06;;;;;;;;;;;7.00;69.40;;;;;;5007095;27;88304;-53
2023/11/10 07:55:32;;;;;;;;;;;7.00;69.30;;;;;;5008605;28;86428;-50
2023/11/10 07:57:57;;;;;;;;;;;7.00;69.40;;;;;;5012840;28;88295;-51
2023/11/10 08:00:23;;;;;;;;;;;7.00;69.20;;;;;;5015995;28;87042;-53
2023/11/10 08:02:52;;;;;;;;;;;7.00;69.30;;;;;;5011907;28;88126;-55
2023/11/10 08:05:19;;;;;;;;;;;6.90;69.10;;;;;;5019193;28;89310;-51
2023/11/10 08:07:45;;;;;;;;;;;7.00;69.20;;;;;;5017221;28;87276;-51
2023/11/10 08:10:10;;;;;;;;;;;6.90;69.10;;;;;;5015964;28;87103;-55
2023/11/10 08:12:39;;;;;;;;;;;7.00;69.30;;;;;;5014355;28;87988;-48
2023/11/10 08:15:05;;;;;;;;;;;7.00;69.50;;;;;;5009720;28;87116;-55
2023/11/10 08:17:30;;;;;;;;;;;7.00;69.20;;;;;;5013966;28;89212;-57
2023/11/10 08:19:56;;;;;;;;;;;7.00;69.30;;;;;;5018639;28;89062;-50
2023/11/10 08:22:22;;;;;;;;;;;7.00;69.10;;;;;;5014543;28;88037;-56
2023/11/10 08:24:48;;;;;;;;;;;7.00;69.30;;;;;;5014418;28;88514;-57
2023/11/10 08:27:14;;;;;;;;;;;7.00;69.10;;;;;;5014391;28;88195;-52
2023/11/10 08:29:39;;;;;;;;;;;6.90;69.30;;;;;;5016079;28;87187;-54
2023/11/10 08:32:05;;;;;;;;;;;7.00;69.40;;;;;;5016919;28;87690;-52
2023/11/10 08:34:31;;;;;;;;;;;7.00;69.80;;;;;;5015742;28;87103;-54
2023/11/10 08:36:57;;;;;;;;;;;7.00;69.80;;;;;;5014404;28;88590;-53
2023/11/10 08:39:23;;;;;;;;;;;7.00;69.30;;;;;;5016349;28;88574;-58
2023/11/10 08:41:49;;;;;;;;;;;7.00;69.30;;;;;;5013316;28;87455;-51
2023/11/10 08:44:15;;;;;;;;;;;7.10;69.80;;;;;;5011990;28;87520;-50
2023/11/10 08:46:43;;;;;;;;;;;7.10;69.10;;;;;;5017380;28;87082;-56
2023/11/10 08:49:09;;;;;;;;;;;7.10;69.50;;;;;;5013616;28;87653;-53
2023/11/10 08:51:34;;;;;;;;;;;7.10;69.90;;;;;;5010465;28;89033;-51
2023/11/10 08:54:00;;;;;;;;;;;7.10;69.10;;;;;;5012118;28;87141;-52
2023/11/10 08:56:25;;;;;;;;;;;7.10;70.00;;;;;;5008272;28;87909;-53
2023/11/10 08:58:51;;;;;;;;;;;7.00;69.20;;;;;;5009465;28;88239;-52
2023/11/10 09:01:17;;;;;;;;;;;7.00;69.80;;;;;;5016800;28;87816;-57
2023/11/10 09:03:43;;;;;;;;;;;7.10;69.70;;;;;;5010804;28;90004;-54
2023/11/10 09:06:09;;;;;;;;;;;7.10;70.00;;;;;;5012023;28;87073;-55
2023/11/10 09:08:35;;;;;;;;;;;7.10;69.80;;;;;;5013253;28;88969;-50
2023/11/10 09:11:00;;;;;;;;;;;7.10;69.50;;;;;;5015058;28;88811;-56
2023/11/10 09:13:26;;;;;;;;;;;7.10;70.10;;;;;;5010932;28;87146;-51
2023/11/10 09:15:52;;;;;;;;;;;7.10;69.50;;;;;;5012570;28;87964;-50
2023/11/10 09:18:18;;;;;;;;;;;7.10;69.80;;;;;;5013855;28;87995;-52
2023/11/10 09:20:44;;;;;;;;;;;7.10;69.90;;;;;;5014970;28;87185;-57
2023/11/10 09:23:10;;;;;;;;;;;7.10;69.80;;;;;;5016943;28;88478;-50
2023/11/10 09:25:36;;;;;;;;;;;7.10;69.80;;;;;;5015565;28;87092;-53
2023/11/10 09:28:03;;;;;;;;;;;7.10;69.70;;;;;;5009326;28;87707;-53
2023/11/10 09:30:28;;;;;;;;;;;7.10;69.50;;;;;;5012986;28;89521;-48
2023/11/10 09:32:56;;;;;;;;;;;7.10;70.20;;;;;;5014448;28;87209;-57
2023/11/10 09:35:22;;;;;;;;;;;7.10;69.80;;;;;;5013327;28;87094;-54
2023/11/10 09:37:47;;;;;;;;;;;7.00;70.30;;;;;;5011541;28;87971;-49
2023/11/10 09:40:14;;;;;;;;;;;7.10;70.10;;;;;;5013313;28;89042;-54
2023/11/10 09:42:39;;;;;;;;;;;7.00;70.20;;;;;;5013320;28;87712;-53
2023/11/10 09:45:05;;;;;;;;;;;7.10;70.40;;;;;;5017066;28;87227;-54
2023/11/10 09:47:32;;;;;;;;;;;7.10;70.00;;;;;;5010754;28;87785;-52
2023/11/10 09:49:59;;;;;;;;;;;7.00;70.00;;;;;;5016327;28;88912;-55
2023/11/10 09:52:25;;;;;;;;;;;7.00;70.60;;;;;;5014270;28;87777;-55
2023/11/10 09:54:51;;;;;;;;;;;7.00;70.70;;;;;;5013938;28;87416;-53
2023/11/10 09:57:17;;;;;;;;;;;7.10;70.10;;;;;;5013896;28;88996;-50
2023/11/10 09:59:44;;;;;;;;;;;7.00;70.30;;;;;;5017123;28;87187;-49
2023/11/10 10:02:11;;;;;;;;;;;7.10;70.10;;;;;;5011845;28;87123;-54
2023/11/10 10:04:38;;;;;;;;;;;7.00;70.20;;;;;;5012426;28;90275;-53
2023/11/10 10:07:04;;;;;;;;;;;7.00;70.90;;;;;;5013438;28;88027;-50
2023/11/10 10:09:30;;;;;;;;;;;7.10;70.50;;;;;;5007298;28;88407;-50
2023/11/10 10:11:57;;;;;;;;;;;7.00;70.30;;;;;;5011345;28;87144;-56
2023/11/10 10:14:22;;;;;;;;;;;7.10;70.50;;;;;;5014807;28;87735;-54
2023/11/10 10:16:55;;;;;;;;;;;7.10;70.70;;;;;;5009726;28;87235;-58
2023/11/10 10:19:24;;;;;;;;;;;7.00;70.80;;;;;;5009514;28;87169;-55
2023/11/10 10:21:50;;;;;;;;;;;7.00;70.90;;;;;;5010424;28;87389;-53
2023/11/10 10:24:16;;;;;;;;;;;7.10;70.70;;;;;;5008304;28;91503;-54
2023/11/10 10:26:41;;;;;;;;;;;7.10;70.70;;;;;;5013887;28;87793;-53
2023/11/10 10:29:08;;;;;;;;;;;7.10;70.60;;;;;;5014584;28;88214;-53
2023/11/10 10:31:33;;;;;;;;;;;7.10;70.80;;;;;;5011180;28;87103;-56
2023/11/10 10:34:04;;;;;;;;;;;7.10;70.90;;;;;;5010578;28;87417;-52
2023/11/10 10:36:37;;;;;;;;;;;7.00;71.00;;;;;;5012261;28;89407;-55
2023/11/10 10:39:09;;;;;;;;;;;7.10;71.20;;;;;;5017599;28;87108;-58
2023/11/10 10:41:36;;;;;;;;;;;7.10;71.20;;;;;;5010385;28;89010;-58
2023/11/10 10:44:03;;;;;;;;;;;7.10;71.10;;;;;;5012516;28;88004;-52
2023/11/10 10:46:28;;;;;;;;;;;7.10;71.10;;;;;;5011131;28;87110;-57
2023/11/10 10:48:55;;;;;;;;;;;7.10;71.20;;;;;;5014380;28;87117;-52
2023/11/10 10:51:21;;;;;;;;;;;7.10;71.10;;;;;;5021344;28;88037;-55
2023/11/10 10:53:48;;;;;;;;;;;7.10;71.30;;;;;;5013755;28;88124;-54
2023/11/10 10:56:16;;;;;;;;;;;7.10;71.30;;;;;;5009640;28;88012;-56
2023/11/10 10:58:42;;;;;;;;;;;7.10;71.40;;;;;;5012483;28;87096;-55
2023/11/10 11:01:08;;;;;;;;;;;7.00;71.40;;;;;;5013705;28;87501;-50
2023/11/10 11:03:46;;;;;;;;;;;7.10;71.50;;;;;;5011748;28;89295;-57
2023/11/10 11:06:30;;;;;;;;;;;7.10;71.40;;;;;;5009091;28;87528;-56
2023/11/10 11:09:19;;;;;;;;;;;7.10;71.50;;;;;;5013482;28;88048;-50
2023/11/10 11:11:44;;;;;;;;;;;7.10;71.60;;;;;;5009662;28;87444;-52
2023/11/10 11:14:13;;;;;;;;;;;7.10;71.50;;;;;;5014613;28;87460;-50
2023/11/10 11:16:38;;;;;;;;;;;7.10;71.60;;;;;;5011549;28;88861;-49
2023/11/10 11:19:23;;;;;;;;;;;7.10;71.50;;;;;;5019194;28;88988;-51
2023/11/10 11:21:50;;;;;;;;;;;7.10;71.70;;;;;;5011685;28;89519;-52
2023/11/10 11:24:22;;;;;;;;;;;7.10;71.60;;;;;;5004331;28;88119;-52
2023/11/10 11:26:56;;;;;;;;;;;7.20;71.90;;;;;;5012553;28;88621;-50
2023/11/10 11:29:21;;;;;;;;;;;7.10;71.70;;;;;;5008265;28;87933;-54
2023/11/10 11:31:47;;;;;;;;;;;7.20;71.80;;;;;;5009137;28;89294;-52
2023/11/10 11:34:16;;;;;;;;;;;7.20;71.80;;;;;;5018630;28;87703;-53
2023/11/10 11:36:45;;;;;;;;;;;7.20;71.90;;;;;;5015300;28;86766;-53
2023/11/10 11:39:15;;;;;;;;;;;7.20;72.20;;;;;;5016683;28;87673;-54
2023/11/10 11:41:51;;;;;;;;;;;7.20;72.10;;;;;;5016812;28;88797;-49
2023/11/10 11:44:29;;;;;;;;;;;7.20;72.20;;;;;;5014210;28;89403;-53
2023/11/10 11:46:56;;;;;;;;;;;7.20;72.20;;;;;;5017195;28;87330;-52
2023/11/10 11:49:22;;;;;;;;;;;7.20;72.50;;;;;;5013167;28;88423;-52
2023/11/10 11:51:48;;;;;;;;;;;7.20;72.30;;;;;;5010194;28;88034;-57
2023/11/10 11:54:15;;;;;;;;;;;7.20;72.50;;;;;;5013237;28;87151;-55
2023/11/10 11:56:43;;;;;;;;;;;7.20;72.70;;;;;;5020138;28;87314;-53
2023/11/10 11:59:12;;;;;;;;;;;7.20;72.40;;;;;;5013068;28;87308;-54
2023/11/10 12:01:38;;;;;;;;;;;7.20;72.60;;;;;;5015626;28;87364;-56
2023/11/10 12:04:07;;;;;;;;;;;7.20;72.90;;;;;;5018116;28;88372;-52
2023/11/10 12:06:36;;;;;;;;;;;7.20;72.90;;;;;;5013858;28;87096;-56
2023/11/10 12:09:05;;;;;;;;;;;7.20;72.80;;;;;;5009625;28;88140;-58
2023/11/10 12:11:31;;;;;;;;;;;7.20;72.60;;;;;;5012347;28;90009;-50
2023/11/10 12:13:57;;;;;;;;;;;7.20;73.00;;;;;;5013395;28;87074;-49
2023/11/10 12:16:23;;;;;;;;;;;7.20;72.90;;;;;;5015986;28;88856;-55
2023/11/10 12:18:51;;;;;;;;;;;7.20;72.70;;;;;;5014209;28;87285;-55
2023/11/10 12:21:17;;;;;;;;;;;7.20;73.00;;;;;;5017478;28;87201;-52
2023/11/10 12:23:43;;;;;;;;;;;7.20;73.30;;;;;;5012299;28;87998;-50
2023/11/10 12:26:08;;;;;;;;;;;7.20;73.40;;;;;;5014774;28;86478;-49
2023/11/10 12:28:35;;;;;;;;;;;7.20;73.50;;;;;;5016427;28;88221;-58
2023/11/10 12:31:01;;;;;;;;;;;7.20;73.60;;;;;;5014448;28;88079;-50
2023/11/10 12:33:29;;;;;;;;;;;7.20;73.70;;;;;;5013392;28;88055;-55
2023/11/10 12:35:57;;;;;;;;;;;7.20;73.70;;;;;;5016053;28;89507;-52
2023/11/10 12:38:23;;;;;;;;;;;7.20;73.70;;;;;;5015008;28;89414;-54
2023/11/10 12:40:49;;;;;;;;;;;7.20;73.90;;;;;;5013804;28;87092;-53
2023/11/10 12:43:14;;;;;;;;;;;7.30;73.80;;;;;;5015329;28;88077;-56
2023/11/10 12:45:40;;;;;;;;;;;7.20;73.70;;;;;;5011734;28;87998;-52
2023/11/10 12:48:12;;;;;;;;;;;7.20;73.80;;;;;;5014165;28;87643;-53
2023/11/10 12:50:38;;;;;;;;;;;7.30;73.90;;;;;;5013697;28;87127;-51
2023/11/10 12:53:04;;;;;;;;;;;7.30;73.80;;;;;;5012362;28;87152;-55
2023/11/10 12:55:29;;;;;;;;;;;7.30;73.90;;;;;;5011457;28;88759;-51
2023/11/10 12:57:55;;;;;;;;;;;7.30;73.90;;;;;;5012582;28;88649;-56
2023/11/10 13:00:20;;;;;;;;;;;7.30;74.00;;;;;;5012081;28;87266;-58
2023/11/10 13:02:46;;;;;;;;;;;7.30;74.00;;;;;;5015286;28;87051;-54
2023/11/10 13:05:14;;;;;;;;;;;7.30;74.10;;;;;;5018961;28;89075;-49
2023/11/10 13:07:40;;;;;;;;;;;7.30;74.20;;;;;;5010803;28;88791;-56
2023/11/10 13:10:07;;;;;;;;;;;7.30;74.40;;;;;;5013436;28;88061;-56
2023/11/10 13:12:33;;;;;;;;;;;7.30;74.20;;;;;;5012995;28;87335;-56
2023/11/10 13:14:59;;;;;;;;;;;7.30;74.30;;;;;;5015285;28;88613;-57
2023/11/10 13:17:26;;;;;;;;;;;7.30;74.30;;;;;;5012773;28;87984;-52
2023/11/10 13:19:52;;;;;;;;;;;7.40;74.50;;;;;;5016154;28;87128;-49
2023/11/10 13:22:19;;;;;;;;;;;7.40;74.40;;;;;;5014276;28;88400;-53
2023/11/10 13:24:46;;;;;;;;;;;7.40;74.40;;;;;;5011438;28;87675;-56
2023/11/10 13:27:14;;;;;;;;;;;7.30;74.40;;;;;;5007375;28;88977;-52
2023/11/10 13:29:42;;;;;;;;;;;7.40;74.50;;;;;;5012265;28;88355;-52
2023/11/10 13:32:09;;;;;;;;;;;7.40;74.60;;;;;;5014201;28;87171;-58
2023/11/10 13:34:35;;;;;;;;;;;7.40;74.50;;;;;;5015661;28;89418;-57
2023/11/10 13:37:04;;;;;;;;;;;7.40;74.50;;;;;;5009529;28;88029;-55
2023/11/10 13:39:30;;;;;;;;;;;7.40;74.50;;;;;;5011836;28;86403;-55
2023/11/10 13:41:55;;;;;;;;;;;7.40;74.60;;;;;;5014497;28;87683;-53
2023/11/10 13:44:21;;;;;;;;;;;7.40;74.50;;;;;;5016980;28;88103;-54
2023/11/10 13:46:46;;;;;;;;;;;7.40;74.60;;;;;;5021133;28;88865;-59
2023/11/10 13:49:12;;;;;;;;;;;7.50;74.30;;;;;;5013954;28;87965;-54
2023/11/10 13:51:37;;;;;;;;;;;7.40;74.40;;;;;;5019031;28;87173;-57
2023/11/10 13:54:04;;;;;;;;;;;7.40;75.30;;;;;;5013737;28;88956;-58
2023/11/10 13:56:29;;;;;;;;;;;7.50;74.50;;;;;;5010064;28;89212;-55
2023/11/10 13:58:55;;;;;;;;;;;7.50;74.80;;;;;;5010647;28;87245;-55
2023/11/10 14:01:21;;;;;;;;;;;7.50;74.20;;;;;;5014112;28;87356;-55
2023/11/10 14:03:47;;;;;;;;;;;7.60;74.40;;;;;;5013668;28;88125;-48
2023/11/10 14:06:14;;;;;;;;;;;7.60;74.20;;;;;;5013059;28;88266;-53
2023/11/10 14:08:40;;;;;;;;;;;7.70;73.90;;;;;;5009975;28;89666;-56
2023/11/10 14:11:09;;;;;;;;;;;7.70;73.80;;;;;;5013142;28;88059;-49
2023/11/10 14:13:35;;;;;;;;;;;7.70;74.00;;;;;;5007766;28;88248;-55
2023/11/10 14:16:01;;;;;;;;;;;7.70;74.10;;;;;;5013823;28;87969;-60
2023/11/10 14:18:28;;;;;;;;;;;7.80;73.80;;;;;;5013785;28;87465;-55
2023/11/10 14:20:55;;;;;;;;;;;7.80;73.60;;;;;;5014390;28;87231;-56
2023/11/10 14:23:20;;;;;;;;;;;7.80;73.70;;;;;;5011392;28;88686;-57
2023/11/10 14:25:46;;;;;;;;;;;7.80;73.80;;;;;;5012668;28;87546;-55